Sunday, October 26, 2014
07:02 UTC
  |  Log In   |  Register Free
Airport Search:

Lenawee County Airport
(KADG)

Lenawee County Airport Diagram
No Airport Diagram Available

FAA data valid effective September 18, 2014 - November 13, 2014 (unless otherwise noted).

 
 
 
 
 
 
 
 
 
 
 
 
 
 

Current Aviation Weather for Lenawee County Airport (KADG)

The most recent METAR observation for KADG was updated at: 0607
METAR Summary (Translated METAR)
KADG
260553Z AUTO 32006KT 10SM CLR 10/00 A2988 RMK AO2 SLP119 T01000000 10150 20100 53003
KUSE
260555Z AUTO 28008KT 10SM CLR 08/01 A2988 RMK AO2
(15.6 nm SW from KADG)
KDUH
260555Z AUTO 00000KT 10SM CLR 10/00 A2987 RMK AO2
(20.5 nm SE from KADG)
TAF
No TAF information found within 50 nm of KADG
  Airport Weather Conditions for KADG

 Current Weather at ADG
51° F
Fair
Northwest winds at 8.1 mph
ADG NOAA Radar

Pressure: 29.87 in
Humidity: 48%
Wind: Northwest at 8.1 MPH (7 KT)
Dew Point: 32.0°F
Visibility: 10.00 mi


Airport Weather Forecast for KADG

Translated METAR and TAF for KADG
Translated METAR for KADG (0657 UTC 26 October 2014)
found at http://aviationweather.gov/adds/metars/
 
METAR text: KADG 260653Z AUTO 30005KT 10SM CLR 09/M01 A2989 RMK AO2 SLP125 T00891006
Conditions at: KADG (ADRIAN , MI, US) observed 0653 UTC 26 October 2014
Temperature: 8.9°C (48°F)
Dewpoint: -0.6°C (31°F) [RH = 51%]
Pressure (altimeter): 29.89 inches Hg (1012.3 mb)
[Sea-level pressure: 1012.5 mb]
Winds: from the WNW (300 degrees) at 6 MPH (5 knots; 2.6 m/s)
Visibility: 10 or more miles (16+ km)
Ceiling: at least 12,000 feet AGL
Clouds: sky clear below 12,000 feet AGL
Weather: automated observation with no human augmentation;
there may or may not be significant weather present at this time
Translated TAF for KADG

There is no translated TAF available for this airport

Find All Airport Services Find A Hotel Find A Rental Car Find A Golf Course Find A Restaurant $100 Hamburger



FBO's on the Field
FBO Company Facility Photos Services Transportation Aviation Fuel Prices: Prices include tax
Catering Weather Repair Courtesy Rental Type 100LL JetA JetA+ MOGAS 8087
 
Lenawee County Airport

This FBO has not yet been rated
FS:Avfuel
Last Updated: Oct-10
Login to update fuel prices
SS:
Contact Lenawee County AirportMore FBO Information
 
Add another FBO Facility Photos Catering Weather Repair Courtesy Rental Type 100LL JetA JetA+ MOGAS 8087
Services Transportation Aviation Fuel Prices: Prices include tax


model-print
model-print
model-print
model-print